sensor_id;sensor_type;location;lat;lon;timestamp;P1;durP1;ratioP1;P2;durP2;ratioP2
58260;SDS011;44058;52.898;6.502;2023-06-26T00:01:35;9.32;;;8.52;;
58260;SDS011;44058;52.898;6.502;2023-06-26T00:04:02;8.90;;;8.10;;
58260;SDS011;44058;52.898;6.502;2023-06-26T00:06:28;9.25;;;8.48;;
58260;SDS011;44058;52.898;6.502;2023-06-26T00:08:54;9.90;;;9.00;;
58260;SDS011;44058;52.898;6.502;2023-06-26T00:11:21;10.18;;;9.27;;
58260;SDS011;44058;52.898;6.502;2023-06-26T00:13:47;11.18;;;9.52;;
58260;SDS011;44058;52.898;6.502;2023-06-26T00:16:13;10.25;;;9.18;;
58260;SDS011;44058;52.898;6.502;2023-06-26T00:18:40;10.77;;;9.55;;
58260;SDS011;44058;52.898;6.502;2023-06-26T00:21:06;10.40;;;9.40;;
58260;SDS011;44058;52.898;6.502;2023-06-26T00:23:32;10.02;;;9.07;;
58260;SDS011;44058;52.898;6.502;2023-06-26T00:26:02;10.18;;;9.30;;
58260;SDS011;44058;52.898;6.502;2023-06-26T00:28:28;9.80;;;9.00;;
58260;SDS011;44058;52.898;6.502;2023-06-26T00:30:54;11.00;;;9.63;;
58260;SDS011;44058;52.898;6.502;2023-06-26T00:33:21;10.70;;;9.60;;
58260;SDS011;44058;52.898;6.502;2023-06-26T00:35:47;9.73;;;8.93;;
58260;SDS011;44058;52.898;6.502;2023-06-26T00:38:13;10.93;;;9.50;;
58260;SDS011;44058;52.898;6.502;2023-06-26T00:40:39;10.40;;;9.50;;
58260;SDS011;44058;52.898;6.502;2023-06-26T00:43:05;10.82;;;9.82;;
58260;SDS011;44058;52.898;6.502;2023-06-26T00:45:31;9.77;;;8.85;;
58260;SDS011;44058;52.898;6.502;2023-06-26T00:47:57;9.30;;;8.50;;
58260;SDS011;44058;52.898;6.502;2023-06-26T00:50:23;10.45;;;9.55;;
58260;SDS011;44058;52.898;6.502;2023-06-26T00:52:49;10.27;;;9.27;;
58260;SDS011;44058;52.898;6.502;2023-06-26T00:55:16;10.13;;;9.20;;
58260;SDS011;44058;52.898;6.502;2023-06-26T00:57:42;9.93;;;9.02;;
58260;SDS011;44058;52.898;6.502;2023-06-26T01:00:10;10.50;;;9.57;;
58260;SDS011;44058;52.898;6.502;2023-06-26T01:02:36;10.48;;;9.48;;
58260;SDS011;44058;52.898;6.502;2023-06-26T01:07:32;10.20;;;9.27;;
58260;SDS011;44058;52.898;6.502;2023-06-26T01:10:02;10.45;;;9.52;;
58260;SDS011;44058;52.898;6.502;2023-06-26T01:12:29;10.57;;;9.60;;
58260;SDS011;44058;52.898;6.502;2023-06-26T01:14:56;10.57;;;9.57;;
58260;SDS011;44058;52.898;6.502;2023-06-26T01:17:22;10.13;;;9.23;;
58260;SDS011;44058;52.898;6.502;2023-06-26T01:19:49;10.13;;;9.20;;
58260;SDS011;44058;52.898;6.502;2023-06-26T01:24:44;13.18;;;10.10;;
58260;SDS011;44058;52.898;6.502;2023-06-26T01:27:12;10.82;;;9.70;;
58260;SDS011;44058;52.898;6.502;2023-06-26T01:29:38;10.75;;;9.82;;
58260;SDS011;44058;52.898;6.502;2023-06-26T01:32:05;9.82;;;8.82;;
58260;SDS011;44058;52.898;6.502;2023-06-26T01:34:31;11.00;;;9.90;;
58260;SDS011;44058;52.898;6.502;2023-06-26T01:36:57;11.02;;;9.98;;
58260;SDS011;44058;52.898;6.502;2023-06-26T01:39:24;10.70;;;9.70;;
58260;SDS011;44058;52.898;6.502;2023-06-26T01:41:50;11.73;;;10.48;;
58260;SDS011;44058;52.898;6.502;2023-06-26T01:46:52;11.75;;;10.55;;
58260;SDS011;44058;52.898;6.502;2023-06-26T01:54:42;11.00;;;9.90;;
58260;SDS011;44058;52.898;6.502;2023-06-26T01:57:11;10.70;;;9.68;;
58260;SDS011;44058;52.898;6.502;2023-06-26T01:59:37;11.38;;;10.30;;
58260;SDS011;44058;52.898;6.502;2023-06-26T02:02:06;10.53;;;9.43;;
58260;SDS011;44058;52.898;6.502;2023-06-26T02:04:32;10.82;;;9.52;;
58260;SDS011;44058;52.898;6.502;2023-06-26T02:06:59;10.73;;;9.73;;
58260;SDS011;44058;52.898;6.502;2023-06-26T02:09:26;11.00;;;9.93;;
58260;SDS011;44058;52.898;6.502;2023-06-26T02:11:52;10.82;;;9.82;;
58260;SDS011;44058;52.898;6.502;2023-06-26T02:14:18;10.98;;;9.82;;
58260;SDS011;44058;52.898;6.502;2023-06-26T02:16:44;10.43;;;9.52;;
58260;SDS011;44058;52.898;6.502;2023-06-26T02:19:10;10.77;;;9.77;;
58260;SDS011;44058;52.898;6.502;2023-06-26T02:21:36;10.95;;;9.95;;
58260;SDS011;44058;52.898;6.502;2023-06-26T02:24:04;12.18;;;11.00;;
58260;SDS011;44058;52.898;6.502;2023-06-26T02:26:30;11.35;;;10.15;;
58260;SDS011;44058;52.898;6.502;2023-06-26T02:28:56;11.65;;;10.45;;
58260;SDS011;44058;52.898;6.502;2023-06-26T02:31:22;12.48;;;11.02;;
58260;SDS011;44058;52.898;6.502;2023-06-26T02:33:48;12.60;;;11.35;;
58260;SDS011;44058;52.898;6.502;2023-06-26T02:36:14;11.52;;;10.43;;
58260;SDS011;44058;52.898;6.502;2023-06-26T02:38:40;11.38;;;10.38;;
58260;SDS011;44058;52.898;6.502;2023-06-26T02:41:07;13.85;;;11.60;;
58260;SDS011;44058;52.898;6.502;2023-06-26T02:43:33;12.77;;;11.57;;
58260;SDS011;44058;52.898;6.502;2023-06-26T02:45:59;13.40;;;12.18;;
58260;SDS011;44058;52.898;6.502;2023-06-26T02:48:25;12.32;;;11.02;;
58260;SDS011;44058;52.898;6.502;2023-06-26T02:50:51;12.45;;;11.35;;
58260;SDS011;44058;52.898;6.502;2023-06-26T02:53:17;13.07;;;11.77;;
58260;SDS011;44058;52.898;6.502;2023-06-26T02:55:43;12.77;;;11.48;;
58260;SDS011;44058;52.898;6.502;2023-06-26T02:58:09;11.95;;;10.82;;
58260;SDS011;44058;52.898;6.502;2023-06-26T03:00:35;13.38;;;12.02;;
58260;SDS011;44058;52.898;6.502;2023-06-26T03:03:06;12.30;;;11.20;;
58260;SDS011;44058;52.898;6.502;2023-06-26T03:05:32;13.00;;;11.80;;
58260;SDS011;44058;52.898;6.502;2023-06-26T03:07:59;12.65;;;11.55;;
58260;SDS011;44058;52.898;6.502;2023-06-26T03:10:25;14.10;;;12.20;;
58260;SDS011;44058;52.898;6.502;2023-06-26T03:12:51;13.45;;;12.15;;
58260;SDS011;44058;52.898;6.502;2023-06-26T03:15:17;12.27;;;11.15;;
58260;SDS011;44058;52.898;6.502;2023-06-26T03:17:44;13.10;;;11.80;;
58260;SDS011;44058;52.898;6.502;2023-06-26T03:20:10;12.77;;;11.57;;
58260;SDS011;44058;52.898;6.502;2023-06-26T03:22:36;12.52;;;11.35;;
58260;SDS011;44058;52.898;6.502;2023-06-26T03:25:03;12.20;;;11.07;;
58260;SDS011;44058;52.898;6.502;2023-06-26T03:27:30;11.85;;;10.65;;
58260;SDS011;44058;52.898;6.502;2023-06-26T03:29:56;13.35;;;10.60;;
58260;SDS011;44058;52.898;6.502;2023-06-26T03:32:22;13.65;;;11.20;;
58260;SDS011;44058;52.898;6.502;2023-06-26T03:34:48;11.75;;;10.55;;
58260;SDS011;44058;52.898;6.502;2023-06-26T03:37:14;10.82;;;9.73;;
58260;SDS011;44058;52.898;6.502;2023-06-26T03:39:40;11.70;;;10.55;;
58260;SDS011;44058;52.898;6.502;2023-06-26T03:42:07;12.43;;;10.73;;
58260;SDS011;44058;52.898;6.502;2023-06-26T03:44:33;11.20;;;10.00;;
58260;SDS011;44058;52.898;6.502;2023-06-26T03:46:59;12.80;;;10.35;;
58260;SDS011;44058;52.898;6.502;2023-06-26T03:49:25;11.32;;;9.88;;
58260;SDS011;44058;52.898;6.502;2023-06-26T03:51:51;10.57;;;9.50;;
58260;SDS011;44058;52.898;6.502;2023-06-26T03:54:17;13.10;;;9.95;;
58260;SDS011;44058;52.898;6.502;2023-06-26T03:56:43;10.10;;;9.10;;
58260;SDS011;44058;52.898;6.502;2023-06-26T03:59:09;17.00;;;9.38;;
58260;SDS011;44058;52.898;6.502;2023-06-26T04:01:36;11.15;;;9.10;;
58260;SDS011;44058;52.898;6.502;2023-06-26T04:04:03;12.10;;;8.85;;
58260;SDS011;44058;52.898;6.502;2023-06-26T04:06:29;9.50;;;8.27;;
58260;SDS011;44058;52.898;6.502;2023-06-26T04:08:57;9.73;;;8.07;;
58260;SDS011;44058;52.898;6.502;2023-06-26T04:11:24;8.82;;;7.85;;
58260;SDS011;44058;52.898;6.502;2023-06-26T04:13:50;8.75;;;7.85;;
58260;SDS011;44058;52.898;6.502;2023-06-26T04:16:16;10.05;;;8.93;;
58260;SDS011;44058;52.898;6.502;2023-06-26T04:18:42;11.13;;;9.70;;
58260;SDS011;44058;52.898;6.502;2023-06-26T04:21:09;10.82;;;9.73;;
58260;SDS011;44058;52.898;6.502;2023-06-26T04:23:39;10.65;;;9.60;;
58260;SDS011;44058;52.898;6.502;2023-06-26T04:26:06;11.25;;;9.98;;
58260;SDS011;44058;52.898;6.502;2023-06-26T04:28:32;10.82;;;9.48;;
58260;SDS011;44058;52.898;6.502;2023-06-26T04:30:59;11.20;;;10.15;;
58260;SDS011;44058;52.898;6.502;2023-06-26T04:33:25;10.68;;;9.68;;
58260;SDS011;44058;52.898;6.502;2023-06-26T04:35:52;11.68;;;9.25;;
58260;SDS011;44058;52.898;6.502;2023-06-26T04:38:19;13.57;;;9.70;;
58260;SDS011;44058;52.898;6.502;2023-06-26T04:40:46;9.95;;;8.75;;
58260;SDS011;44058;52.898;6.502;2023-06-26T04:43:15;10.73;;;8.32;;
58260;SDS011;44058;52.898;6.502;2023-06-26T04:45:41;9.50;;;7.95;;
58260;SDS011;44058;52.898;6.502;2023-06-26T04:48:07;12.07;;;7.60;;
58260;SDS011;44058;52.898;6.502;2023-06-26T04:50:34;9.60;;;7.43;;
58260;SDS011;44058;52.898;6.502;2023-06-26T04:53:00;11.85;;;7.65;;
58260;SDS011;44058;52.898;6.502;2023-06-26T04:55:26;12.68;;;7.50;;
58260;SDS011;44058;52.898;6.502;2023-06-26T04:57:53;15.07;;;8.20;;
58260;SDS011;44058;52.898;6.502;2023-06-26T05:00:19;13.05;;;8.00;;
58260;SDS011;44058;52.898;6.502;2023-06-26T05:02:45;10.40;;;7.55;;
58260;SDS011;44058;52.898;6.502;2023-06-26T05:05:11;12.00;;;7.63;;
58260;SDS011;44058;52.898;6.502;2023-06-26T05:07:37;12.65;;;6.90;;
58260;SDS011;44058;52.898;6.502;2023-06-26T05:10:04;12.15;;;7.70;;
58260;SDS011;44058;52.898;6.502;2023-06-26T05:12:31;11.80;;;7.22;;
58260;SDS011;44058;52.898;6.502;2023-06-26T05:14:57;12.80;;;7.20;;
58260;SDS011;44058;52.898;6.502;2023-06-26T05:17:23;13.43;;;7.43;;
58260;SDS011;44058;52.898;6.502;2023-06-26T05:19:49;13.55;;;7.65;;
58260;SDS011;44058;52.898;6.502;2023-06-26T05:22:16;12.30;;;7.53;;
58260;SDS011;44058;52.898;6.502;2023-06-26T05:24:42;15.00;;;7.28;;
58260;SDS011;44058;52.898;6.502;2023-06-26T05:27:12;13.35;;;7.43;;
58260;SDS011;44058;52.898;6.502;2023-06-26T05:29:46;9.73;;;7.10;;
58260;SDS011;44058;52.898;6.502;2023-06-26T05:32:12;10.50;;;7.05;;
58260;SDS011;44058;52.898;6.502;2023-06-26T05:34:40;10.95;;;6.90;;
58260;SDS011;44058;52.898;6.502;2023-06-26T05:37:07;12.32;;;6.53;;
58260;SDS011;44058;52.898;6.502;2023-06-26T05:39:33;14.68;;;7.22;;
58260;SDS011;44058;52.898;6.502;2023-06-26T05:42:00;11.88;;;6.72;;
58260;SDS011;44058;52.898;6.502;2023-06-26T05:44:26;13.13;;;7.07;;
58260;SDS011;44058;52.898;6.502;2023-06-26T05:46:52;12.68;;;6.20;;
58260;SDS011;44058;52.898;6.502;2023-06-26T05:49:18;10.60;;;6.78;;
58260;SDS011;44058;52.898;6.502;2023-06-26T05:51:44;9.75;;;6.68;;
58260;SDS011;44058;52.898;6.502;2023-06-26T05:54:10;13.07;;;5.93;;
58260;SDS011;44058;52.898;6.502;2023-06-26T05:56:38;9.73;;;5.97;;
58260;SDS011;44058;52.898;6.502;2023-06-26T05:59:04;9.05;;;5.15;;
58260;SDS011;44058;52.898;6.502;2023-06-26T06:01:31;6.60;;;4.50;;
58260;SDS011;44058;52.898;6.502;2023-06-26T06:03:58;6.57;;;3.92;;
58260;SDS011;44058;52.898;6.502;2023-06-26T06:06:24;9.13;;;3.60;;
58260;SDS011;44058;52.898;6.502;2023-06-26T06:08:50;5.18;;;3.08;;
58260;SDS011;44058;52.898;6.502;2023-06-26T06:11:17;7.97;;;3.67;;
58260;SDS011;44058;52.898;6.502;2023-06-26T06:13:43;6.65;;;2.90;;
58260;SDS011;44058;52.898;6.502;2023-06-26T06:16:10;7.80;;;2.53;;
58260;SDS011;44058;52.898;6.502;2023-06-26T06:18:36;10.48;;;3.65;;
58260;SDS011;44058;52.898;6.502;2023-06-26T06:21:02;7.43;;;3.30;;
58260;SDS011;44058;52.898;6.502;2023-06-26T06:23:28;4.40;;;2.60;;
58260;SDS011;44058;52.898;6.502;2023-06-26T06:25:54;7.85;;;3.38;;
58260;SDS011;44058;52.898;6.502;2023-06-26T06:28:20;4.50;;;2.67;;
58260;SDS011;44058;52.898;6.502;2023-06-26T06:30:46;3.50;;;2.30;;
58260;SDS011;44058;52.898;6.502;2023-06-26T06:33:13;3.60;;;2.55;;
58260;SDS011;44058;52.898;6.502;2023-06-26T06:35:39;6.32;;;2.67;;
58260;SDS011;44058;52.898;6.502;2023-06-26T06:38:05;4.90;;;2.33;;
58260;SDS011;44058;52.898;6.502;2023-06-26T06:40:31;7.70;;;2.88;;
58260;SDS011;44058;52.898;6.502;2023-06-26T06:42:58;4.78;;;2.20;;
58260;SDS011;44058;52.898;6.502;2023-06-26T06:45:24;4.95;;;2.40;;
58260;SDS011;44058;52.898;6.502;2023-06-26T06:47:50;5.95;;;2.40;;
58260;SDS011;44058;52.898;6.502;2023-06-26T06:50:16;5.72;;;2.35;;
58260;SDS011;44058;52.898;6.502;2023-06-26T06:52:43;6.10;;;2.28;;
58260;SDS011;44058;52.898;6.502;2023-06-26T06:55:09;10.38;;;2.88;;
58260;SDS011;44058;52.898;6.502;2023-06-26T06:57:36;5.72;;;2.03;;
58260;SDS011;44058;52.898;6.502;2023-06-26T07:00:06;5.95;;;2.15;;
58260;SDS011;44058;52.898;6.502;2023-06-26T07:02:36;8.30;;;2.15;;
58260;SDS011;44058;52.898;6.502;2023-06-26T07:05:03;6.47;;;2.20;;
58260;SDS011;44058;52.898;6.502;2023-06-26T07:07:29;5.80;;;1.85;;
58260;SDS011;44058;52.898;6.502;2023-06-26T07:10:03;5.32;;;1.70;;
58260;SDS011;44058;52.898;6.502;2023-06-26T07:12:30;3.75;;;1.85;;
58260;SDS011;44058;52.898;6.502;2023-06-26T07:14:56;6.75;;;2.00;;
58260;SDS011;44058;52.898;6.502;2023-06-26T07:17:23;7.70;;;2.13;;
58260;SDS011;44058;52.898;6.502;2023-06-26T07:19:49;4.60;;;2.10;;
58260;SDS011;44058;52.898;6.502;2023-06-26T07:22:15;4.43;;;1.90;;
58260;SDS011;44058;52.898;6.502;2023-06-26T07:24:44;5.93;;;2.22;;
58260;SDS011;44058;52.898;6.502;2023-06-26T07:27:10;4.47;;;1.98;;
58260;SDS011;44058;52.898;6.502;2023-06-26T07:29:36;6.85;;;2.30;;
58260;SDS011;44058;52.898;6.502;2023-06-26T07:32:02;4.82;;;1.50;;
58260;SDS011;44058;52.898;6.502;2023-06-26T07:34:28;2.72;;;1.85;;
58260;SDS011;44058;52.898;6.502;2023-06-26T07:36:54;3.40;;;1.80;;
58260;SDS011;44058;52.898;6.502;2023-06-26T07:39:20;3.33;;;1.58;;
58260;SDS011;44058;52.898;6.502;2023-06-26T07:41:46;4.45;;;1.85;;
58260;SDS011;44058;52.898;6.502;2023-06-26T07:44:12;2.97;;;1.67;;
58260;SDS011;44058;52.898;6.502;2023-06-26T07:46:39;2.38;;;1.38;;
58260;SDS011;44058;52.898;6.502;2023-06-26T07:49:05;4.18;;;1.40;;
58260;SDS011;44058;52.898;6.502;2023-06-26T07:51:32;4.00;;;1.50;;
58260;SDS011;44058;52.898;6.502;2023-06-26T07:53:58;3.22;;;1.70;;
58260;SDS011;44058;52.898;6.502;2023-06-26T07:56:24;6.28;;;1.75;;
58260;SDS011;44058;52.898;6.502;2023-06-26T07:58:50;6.85;;;1.83;;
58260;SDS011;44058;52.898;6.502;2023-06-26T08:01:17;6.32;;;1.60;;
58260;SDS011;44058;52.898;6.502;2023-06-26T08:03:43;9.57;;;2.13;;
58260;SDS011;44058;52.898;6.502;2023-06-26T08:06:10;4.45;;;1.45;;
58260;SDS011;44058;52.898;6.502;2023-06-26T08:08:36;4.22;;;1.75;;
58260;SDS011;44058;52.898;6.502;2023-06-26T08:11:02;5.13;;;1.98;;
58260;SDS011;44058;52.898;6.502;2023-06-26T08:13:29;3.65;;;1.33;;
58260;SDS011;44058;52.898;6.502;2023-06-26T08:15:55;4.40;;;1.50;;
58260;SDS011;44058;52.898;6.502;2023-06-26T08:18:21;3.88;;;1.70;;
58260;SDS011;44058;52.898;6.502;2023-06-26T08:20:47;3.60;;;1.60;;
58260;SDS011;44058;52.898;6.502;2023-06-26T08:23:13;5.35;;;1.40;;
58260;SDS011;44058;52.898;6.502;2023-06-26T08:25:39;3.83;;;1.50;;
58260;SDS011;44058;52.898;6.502;2023-06-26T08:28:05;3.97;;;1.63;;
58260;SDS011;44058;52.898;6.502;2023-06-26T08:30:32;2.78;;;1.75;;
58260;SDS011;44058;52.898;6.502;2023-06-26T08:32:58;3.75;;;1.73;;
58260;SDS011;44058;52.898;6.502;2023-06-26T08:35:24;4.15;;;1.77;;
58260;SDS011;44058;52.898;6.502;2023-06-26T08:37:50;3.03;;;1.75;;
58260;SDS011;44058;52.898;6.502;2023-06-26T08:40:17;4.95;;;2.05;;
58260;SDS011;44058;52.898;6.502;2023-06-26T08:42:44;4.50;;;1.75;;
58260;SDS011;44058;52.898;6.502;2023-06-26T08:45:10;2.28;;;1.77;;
58260;SDS011;44058;52.898;6.502;2023-06-26T08:47:36;3.70;;;1.88;;
58260;SDS011;44058;52.898;6.502;2023-06-26T08:50:13;6.40;;;1.80;;
58260;SDS011;44058;52.898;6.502;2023-06-26T08:52:46;6.28;;;1.92;;
58260;SDS011;44058;52.898;6.502;2023-06-26T08:55:19;3.13;;;1.60;;
58260;SDS011;44058;52.898;6.502;2023-06-26T08:57:48;4.45;;;2.08;;
58260;SDS011;44058;52.898;6.502;2023-06-26T09:00:14;8.23;;;1.98;;
58260;SDS011;44058;52.898;6.502;2023-06-26T09:02:41;3.40;;;1.50;;
58260;SDS011;44058;52.898;6.502;2023-06-26T09:05:07;6.85;;;1.92;;
58260;SDS011;44058;52.898;6.502;2023-06-26T09:07:34;4.32;;;2.35;;
58260;SDS011;44058;52.898;6.502;2023-06-26T09:10:00;3.90;;;2.10;;
58260;SDS011;44058;52.898;6.502;2023-06-26T09:12:28;6.97;;;2.15;;
58260;SDS011;44058;52.898;6.502;2023-06-26T09:14:56;4.85;;;2.42;;
58260;SDS011;44058;52.898;6.502;2023-06-26T09:17:24;3.50;;;2.08;;
58260;SDS011;44058;52.898;6.502;2023-06-26T09:19:50;4.85;;;2.20;;
58260;SDS011;44058;52.898;6.502;2023-06-26T09:22:17;3.55;;;2.35;;
58260;SDS011;44058;52.898;6.502;2023-06-26T09:24:43;3.17;;;2.45;;
58260;SDS011;44058;52.898;6.502;2023-06-26T09:27:09;3.35;;;2.20;;
58260;SDS011;44058;52.898;6.502;2023-06-26T09:29:36;4.72;;;2.30;;
58260;SDS011;44058;52.898;6.502;2023-06-26T09:32:03;3.58;;;2.45;;
58260;SDS011;44058;52.898;6.502;2023-06-26T09:34:30;3.63;;;2.15;;
58260;SDS011;44058;52.898;6.502;2023-06-26T09:36:57;7.13;;;2.35;;
58260;SDS011;44058;52.898;6.502;2023-06-26T09:39:23;7.13;;;2.55;;
58260;SDS011;44058;52.898;6.502;2023-06-26T09:41:49;3.00;;;1.90;;
58260;SDS011;44058;52.898;6.502;2023-06-26T09:44:16;4.72;;;1.80;;
58260;SDS011;44058;52.898;6.502;2023-06-26T09:46:44;4.35;;;1.80;;
58260;SDS011;44058;52.898;6.502;2023-06-26T09:49:11;4.70;;;2.08;;
58260;SDS011;44058;52.898;6.502;2023-06-26T09:51:38;4.05;;;2.30;;
58260;SDS011;44058;52.898;6.502;2023-06-26T09:54:05;4.40;;;2.00;;
58260;SDS011;44058;52.898;6.502;2023-06-26T09:56:31;7.03;;;2.53;;
58260;SDS011;44058;52.898;6.502;2023-06-26T09:58:58;5.32;;;2.00;;
58260;SDS011;44058;52.898;6.502;2023-06-26T10:01:26;2.83;;;2.13;;
58260;SDS011;44058;52.898;6.502;2023-06-26T10:03:53;3.92;;;2.20;;
58260;SDS011;44058;52.898;6.502;2023-06-26T10:06:19;7.25;;;2.20;;
58260;SDS011;44058;52.898;6.502;2023-06-26T10:08:47;4.18;;;1.73;;
58260;SDS011;44058;52.898;6.502;2023-06-26T10:11:16;5.78;;;1.83;;
58260;SDS011;44058;52.898;6.502;2023-06-26T10:13:42;6.25;;;1.88;;
58260;SDS011;44058;52.898;6.502;2023-06-26T10:16:12;5.93;;;1.92;;
58260;SDS011;44058;52.898;6.502;2023-06-26T10:18:39;5.40;;;2.20;;
58260;SDS011;44058;52.898;6.502;2023-06-26T10:21:05;4.03;;;2.10;;
58260;SDS011;44058;52.898;6.502;2023-06-26T10:23:32;4.07;;;2.00;;
58260;SDS011;44058;52.898;6.502;2023-06-26T10:25:59;5.50;;;2.17;;
58260;SDS011;44058;52.898;6.502;2023-06-26T10:28:26;4.43;;;2.08;;
58260;SDS011;44058;52.898;6.502;2023-06-26T10:30:54;3.38;;;1.95;;
58260;SDS011;44058;52.898;6.502;2023-06-26T10:33:20;4.22;;;2.33;;
58260;SDS011;44058;52.898;6.502;2023-06-26T10:35:47;5.57;;;1.95;;
58260;SDS011;44058;52.898;6.502;2023-06-26T10:38:14;7.93;;;2.08;;
58260;SDS011;44058;52.898;6.502;2023-06-26T10:40:47;4.20;;;1.90;;
58260;SDS011;44058;52.898;6.502;2023-06-26T10:43:14;2.63;;;1.70;;
58260;SDS011;44058;52.898;6.502;2023-06-26T10:45:47;5.18;;;1.90;;
58260;SDS011;44058;52.898;6.502;2023-06-26T10:48:19;4.65;;;1.83;;
58260;SDS011;44058;52.898;6.502;2023-06-26T10:50:50;3.65;;;1.65;;
58260;SDS011;44058;52.898;6.502;2023-06-26T10:55:56;6.50;;;1.83;;
58260;SDS011;44058;52.898;6.502;2023-06-26T11:03:37;8.05;;;1.90;;
58260;SDS011;44058;52.898;6.502;2023-06-26T11:11:14;5.30;;;1.67;;
58260;SDS011;44058;52.898;6.502;2023-06-26T11:13:40;3.20;;;1.70;;
58260;SDS011;44058;52.898;6.502;2023-06-26T11:16:07;5.82;;;1.92;;
58260;SDS011;44058;52.898;6.502;2023-06-26T11:18:34;4.35;;;1.42;;
58260;SDS011;44058;52.898;6.502;2023-06-26T11:21:09;5.45;;;1.60;;
58260;SDS011;44058;52.898;6.502;2023-06-26T11:23:39;1.80;;;1.15;;
58260;SDS011;44058;52.898;6.502;2023-06-26T11:26:21;3.33;;;1.70;;
58260;SDS011;44058;52.898;6.502;2023-06-26T11:28:50;3.40;;;2.05;;
58260;SDS011;44058;52.898;6.502;2023-06-26T11:31:23;5.43;;;1.60;;
58260;SDS011;44058;52.898;6.502;2023-06-26T11:33:49;5.30;;;2.10;;
58260;SDS011;44058;52.898;6.502;2023-06-26T11:36:16;2.97;;;1.42;;
58260;SDS011;44058;52.898;6.502;2023-06-26T11:38:42;3.88;;;2.00;;
58260;SDS011;44058;52.898;6.502;2023-06-26T11:41:08;4.90;;;1.60;;
58260;SDS011;44058;52.898;6.502;2023-06-26T11:43:34;4.40;;;1.80;;
58260;SDS011;44058;52.898;6.502;2023-06-26T11:46:00;5.60;;;1.45;;
58260;SDS011;44058;52.898;6.502;2023-06-26T11:48:26;5.75;;;1.45;;
58260;SDS011;44058;52.898;6.502;2023-06-26T11:50:54;8.68;;;1.48;;
58260;SDS011;44058;52.898;6.502;2023-06-26T11:53:20;2.65;;;1.10;;
58260;SDS011;44058;52.898;6.502;2023-06-26T11:55:46;2.33;;;1.10;;
58260;SDS011;44058;52.898;6.502;2023-06-26T11:58:12;5.60;;;1.20;;
58260;SDS011;44058;52.898;6.502;2023-06-26T12:00:41;11.77;;;1.63;;
58260;SDS011;44058;52.898;6.502;2023-06-26T12:03:08;3.83;;;1.10;;
58260;SDS011;44058;52.898;6.502;2023-06-26T12:05:34;4.35;;;1.52;;
58260;SDS011;44058;52.898;6.502;2023-06-26T12:08:00;10.10;;;1.55;;
58260;SDS011;44058;52.898;6.502;2023-06-26T12:10:28;6.22;;;1.52;;
58260;SDS011;44058;52.898;6.502;2023-06-26T12:12:54;6.78;;;1.65;;
58260;SDS011;44058;52.898;6.502;2023-06-26T12:15:24;3.80;;;1.05;;
58260;SDS011;44058;52.898;6.502;2023-06-26T12:17:50;7.93;;;1.42;;
58260;SDS011;44058;52.898;6.502;2023-06-26T12:20:23;3.55;;;1.10;;
58260;SDS011;44058;52.898;6.502;2023-06-26T12:22:51;5.20;;;1.40;;
58260;SDS011;44058;52.898;6.502;2023-06-26T12:25:23;3.83;;;1.20;;
58260;SDS011;44058;52.898;6.502;2023-06-26T12:27:49;6.40;;;1.88;;
58260;SDS011;44058;52.898;6.502;2023-06-26T12:30:15;5.60;;;1.20;;
58260;SDS011;44058;52.898;6.502;2023-06-26T12:32:45;3.88;;;1.20;;
58260;SDS011;44058;52.898;6.502;2023-06-26T12:35:12;7.60;;;1.33;;
58260;SDS011;44058;52.898;6.502;2023-06-26T12:37:38;4.72;;;1.30;;
58260;SDS011;44058;52.898;6.502;2023-06-26T12:40:19;6.90;;;1.50;;
58260;SDS011;44058;52.898;6.502;2023-06-26T12:42:49;3.35;;;1.30;;
58260;SDS011;44058;52.898;6.502;2023-06-26T12:45:15;3.25;;;1.20;;
58260;SDS011;44058;52.898;6.502;2023-06-26T12:47:41;8.07;;;1.40;;
58260;SDS011;44058;52.898;6.502;2023-06-26T12:50:07;12.65;;;1.73;;
58260;SDS011;44058;52.898;6.502;2023-06-26T12:52:34;5.32;;;1.35;;
58260;SDS011;44058;52.898;6.502;2023-06-26T12:55:00;8.63;;;1.27;;
58260;SDS011;44058;52.898;6.502;2023-06-26T12:57:26;4.97;;;0.98;;
58260;SDS011;44058;52.898;6.502;2023-06-26T12:59:52;5.45;;;1.52;;
58260;SDS011;44058;52.898;6.502;2023-06-26T13:02:18;6.85;;;1.63;;
58260;SDS011;44058;52.898;6.502;2023-06-26T13:04:44;3.95;;;0.95;;
58260;SDS011;44058;52.898;6.502;2023-06-26T13:07:11;3.30;;;1.20;;
58260;SDS011;44058;52.898;6.502;2023-06-26T13:09:37;4.65;;;0.82;;
58260;SDS011;44058;52.898;6.502;2023-06-26T13:12:06;3.22;;;1.30;;
58260;SDS011;44058;52.898;6.502;2023-06-26T13:14:32;6.50;;;1.60;;
58260;SDS011;44058;52.898;6.502;2023-06-26T13:17:00;4.70;;;1.45;;
58260;SDS011;44058;52.898;6.502;2023-06-26T13:19:26;6.53;;;1.73;;
58260;SDS011;44058;52.898;6.502;2023-06-26T13:21:53;7.47;;;1.40;;
58260;SDS011;44058;52.898;6.502;2023-06-26T13:24:19;11.30;;;2.08;;
58260;SDS011;44058;52.898;6.502;2023-06-26T13:26:45;6.75;;;1.77;;
58260;SDS011;44058;52.898;6.502;2023-06-26T13:29:12;4.07;;;1.48;;
58260;SDS011;44058;52.898;6.502;2023-06-26T13:31:38;5.03;;;1.63;;
58260;SDS011;44058;52.898;6.502;2023-06-26T13:34:04;7.75;;;1.45;;
58260;SDS011;44058;52.898;6.502;2023-06-26T13:36:30;3.50;;;1.30;;
58260;SDS011;44058;52.898;6.502;2023-06-26T13:38:59;4.43;;;1.58;;
58260;SDS011;44058;52.898;6.502;2023-06-26T13:41:25;3.78;;;1.27;;
58260;SDS011;44058;52.898;6.502;2023-06-26T13:43:51;4.68;;;1.40;;
58260;SDS011;44058;52.898;6.502;2023-06-26T13:46:17;6.53;;;2.00;;
58260;SDS011;44058;52.898;6.502;2023-06-26T13:48:44;3.63;;;1.17;;
58260;SDS011;44058;52.898;6.502;2023-06-26T13:51:10;10.27;;;1.77;;
58260;SDS011;44058;52.898;6.502;2023-06-26T13:53:36;5.13;;;1.55;;
58260;SDS011;44058;52.898;6.502;2023-06-26T13:56:02;4.80;;;1.42;;
58260;SDS011;44058;52.898;6.502;2023-06-26T13:58:28;4.93;;;1.50;;
58260;SDS011;44058;52.898;6.502;2023-06-26T14:00:57;5.82;;;1.67;;
58260;SDS011;44058;52.898;6.502;2023-06-26T14:03:23;6.78;;;1.42;;
58260;SDS011;44058;52.898;6.502;2023-06-26T14:05:49;5.75;;;1.60;;
58260;SDS011;44058;52.898;6.502;2023-06-26T14:08:16;4.90;;;1.58;;
58260;SDS011;44058;52.898;6.502;2023-06-26T14:10:42;4.80;;;1.45;;
58260;SDS011;44058;52.898;6.502;2023-06-26T14:13:08;7.80;;;1.70;;
58260;SDS011;44058;52.898;6.502;2023-06-26T14:15:36;6.60;;;1.75;;
58260;SDS011;44058;52.898;6.502;2023-06-26T14:20:31;5.03;;;1.50;;
58260;SDS011;44058;52.898;6.502;2023-06-26T14:22:58;5.20;;;1.77;;
58260;SDS011;44058;52.898;6.502;2023-06-26T14:25:25;3.30;;;1.20;;
58260;SDS011;44058;52.898;6.502;2023-06-26T14:27:53;5.80;;;1.60;;
58260;SDS011;44058;52.898;6.502;2023-06-26T14:30:20;13.73;;;1.77;;
58260;SDS011;44058;52.898;6.502;2023-06-26T14:32:46;7.43;;;1.48;;
58260;SDS011;44058;52.898;6.502;2023-06-26T14:35:12;2.38;;;1.40;;
58260;SDS011;44058;52.898;6.502;2023-06-26T14:37:38;6.88;;;1.42;;
58260;SDS011;44058;52.898;6.502;2023-06-26T14:40:05;3.28;;;1.38;;
58260;SDS011;44058;52.898;6.502;2023-06-26T14:42:32;7.05;;;1.05;;
58260;SDS011;44058;52.898;6.502;2023-06-26T14:44:58;7.78;;;1.38;;
58260;SDS011;44058;52.898;6.502;2023-06-26T14:47:24;6.47;;;1.30;;
58260;SDS011;44058;52.898;6.502;2023-06-26T14:49:51;5.03;;;1.50;;
58260;SDS011;44058;52.898;6.502;2023-06-26T14:52:17;5.63;;;1.45;;
58260;SDS011;44058;52.898;6.502;2023-06-26T14:54:43;4.78;;;1.42;;
58260;SDS011;44058;52.898;6.502;2023-06-26T14:57:11;7.43;;;1.33;;
58260;SDS011;44058;52.898;6.502;2023-06-26T14:59:37;10.45;;;1.98;;
58260;SDS011;44058;52.898;6.502;2023-06-26T15:02:03;6.78;;;1.33;;
58260;SDS011;44058;52.898;6.502;2023-06-26T15:04:29;4.50;;;1.67;;
58260;SDS011;44058;52.898;6.502;2023-06-26T15:06:56;4.57;;;1.40;;